SKY7937 LGSR-LTBS
Flight info
| Callsign | SKY7937 |
|---|---|
| Flight time | 1h 0m |
| Altitude | 9000 |
| Route | ASTIS DCT RDS DCT SOTIV |
| Aircraft | DC3/M-SDF/S |
Departure
| Time | 2026-04-22 19:17 |
|---|---|
| Airport | Santorini International Airport (LGSR) |
Arrival
| Time | 2026-04-22 20:17 |
|---|---|
| Airport | Dalaman International Airport (LTBS) |
| Time | Latitude | Longitude | Altitude | Speed | Heading |
|---|---|---|---|---|---|
| 2026-04-22 19:16 | 36.39059 | 25.48321 | 54 ft | 0 kts | 339° |
| 2026-04-22 19:16 | 36.39060 | 25.48321 | 54 ft | 3 kts | 339° |
| 2026-04-22 19:16 | 36.39232 | 25.48237 | 63 ft | 58 kts | 332° |
| 2026-04-22 19:16 | 36.39729 | 25.48065 | 298 ft | 77 kts | 342° |
| 2026-04-22 19:17 | 36.40409 | 25.48099 | 469 ft | 108 kts | 22° |
| 2026-04-22 19:17 | 36.41120 | 25.48662 | 418 ft | 134 kts | 26° |
| 2026-04-22 19:17 | 36.41995 | 25.49346 | 504 ft | 153 kts | 39° |
| 2026-04-22 19:17 | 36.42637 | 25.50464 | 974 ft | 151 kts | 68° |
| 2026-04-22 19:18 | 36.42645 | 25.51590 | 1601 ft | 138 kts | 119° |
| 2026-04-22 19:18 | 36.42371 | 25.52937 | 1609 ft | 176 kts | 83° |
| 2026-04-22 19:18 | 36.42855 | 25.54262 | 2769 ft | 121 kts | 57° |
| 2026-04-22 19:18 | 36.43195 | 25.55173 | 3412 ft | 119 kts | 70° |
| 2026-04-22 19:19 | 36.43444 | 25.56331 | 3364 ft | 163 kts | 81° |
| 2026-04-22 19:19 | 36.43547 | 25.57743 | 4061 ft | 144 kts | 95° |
| 2026-04-22 19:19 | 36.43279 | 25.58815 | 4692 ft | 130 kts | 126° |
| 2026-04-22 19:19 | 36.42967 | 25.59926 | 5141 ft | 136 kts | 89° |
| 2026-04-22 19:20 | 36.42951 | 25.61084 | 5563 ft | 135 kts | 100° |
| 2026-04-22 19:20 | 36.42911 | 25.62309 | 5993 ft | 124 kts | 81° |
| 2026-04-22 19:20 | 36.43092 | 25.63458 | 5858 ft | 161 kts | 80° |
| 2026-04-22 19:20 | 36.43208 | 25.65054 | 5299 ft | 202 kts | 87° |
| 2026-04-22 19:21 | 36.43239 | 25.66644 | 5982 ft | 162 kts | 94° |
| 2026-04-22 19:21 | 36.43010 | 25.67915 | 6144 ft | 168 kts | 117° |
| 2026-04-22 19:21 | 36.42298 | 25.69393 | 5214 ft | 218 kts | 129° |
| 2026-04-22 19:21 | 36.41365 | 25.70431 | 6208 ft | 152 kts | 157° |
| 2026-04-22 19:22 | 36.40350 | 25.70553 | 6277 ft | 158 kts | 200° |
| 2026-04-22 19:22 | 36.39203 | 25.69828 | 5627 ft | 196 kts | 196° |
| 2026-04-22 19:22 | 36.37855 | 25.70578 | 5725 ft | 199 kts | 128° |
| 2026-04-22 19:22 | 36.37472 | 25.72207 | 6588 ft | 151 kts | 100° |
| 2026-04-22 19:23 | 36.36936 | 25.73620 | 6320 ft | 184 kts | 137° |
| 2026-04-22 19:23 | 36.35728 | 25.74836 | 6097 ft | 192 kts | 145° |
| 2026-04-22 19:23 | 36.34684 | 25.75623 | 7051 ft | 136 kts | 163° |
| 2026-04-22 19:23 | 36.33670 | 25.75787 | 6710 ft | 171 kts | 188° |
| 2026-04-22 19:24 | 36.32300 | 25.76191 | 6062 ft | 209 kts | 150° |
| 2026-04-22 19:24 | 36.31477 | 25.77819 | 6015 ft | 211 kts | 102° |
| 2026-04-22 19:24 | 36.31392 | 25.79678 | 6025 ft | 206 kts | 94° |
| 2026-04-22 19:24 | 36.31359 | 25.81513 | 6020 ft | 203 kts | 91° |
| 2026-04-22 19:25 | 36.31330 | 25.83226 | 6012 ft | 201 kts | 91° |
| 2026-04-22 19:25 | 36.31309 | 25.84932 | 6021 ft | 200 kts | 91° |
| 2026-04-22 19:25 | 36.31285 | 25.86674 | 6022 ft | 199 kts | 91° |
| 2026-04-22 19:25 | 36.31262 | 25.88326 | 6019 ft | 199 kts | 91° |
| 2026-04-22 19:26 | 36.31239 | 25.90050 | 6020 ft | 199 kts | 91° |
| 2026-04-22 19:26 | 36.31221 | 25.91748 | 6019 ft | 198 kts | 91° |
| 2026-04-22 19:26 | 36.31205 | 25.93459 | 6020 ft | 198 kts | 91° |
| 2026-04-22 19:26 | 36.31189 | 25.95165 | 6019 ft | 197 kts | 91° |
| 2026-04-22 19:27 | 36.31172 | 25.96854 | 6023 ft | 197 kts | 91° |
| 2026-04-22 19:27 | 36.31154 | 25.98556 | 6023 ft | 197 kts | 91° |
| 2026-04-22 19:27 | 36.31135 | 26.00253 | 6024 ft | 197 kts | 91° |
| 2026-04-22 19:27 | 36.31117 | 26.01945 | 6023 ft | 197 kts | 91° |
| 2026-04-22 19:28 | 36.31100 | 26.03649 | 6016 ft | 197 kts | 91° |
| 2026-04-22 19:28 | 36.31082 | 26.05338 | 6011 ft | 197 kts | 91° |
| 2026-04-22 19:28 | 36.31062 | 26.07051 | 6011 ft | 197 kts | 91° |
| 2026-04-22 19:28 | 36.31046 | 26.08686 | 6015 ft | 197 kts | 91° |
| 2026-04-22 19:29 | 36.31025 | 26.10370 | 6015 ft | 197 kts | 91° |
| 2026-04-22 19:29 | 36.31002 | 26.12077 | 6018 ft | 198 kts | 91° |
| 2026-04-22 19:29 | 36.30977 | 26.13785 | 6015 ft | 198 kts | 91° |
| 2026-04-22 19:29 | 36.30954 | 26.15491 | 6018 ft | 198 kts | 91° |
| 2026-04-22 19:30 | 36.30939 | 26.16626 | 6019 ft | 198 kts | 91° |
| 2026-04-22 19:30 | 36.30910 | 26.18903 | 6020 ft | 198 kts | 91° |
| 2026-04-22 19:30 | 36.30892 | 26.20594 | 6019 ft | 198 kts | 91° |
| 2026-04-22 19:30 | 36.30875 | 26.22237 | 6016 ft | 198 kts | 91° |
| 2026-04-22 19:31 | 36.30859 | 26.23881 | 6010 ft | 198 kts | 91° |
| 2026-04-22 19:31 | 36.30843 | 26.25570 | 6010 ft | 198 kts | 91° |
| 2026-04-22 19:31 | 36.30826 | 26.27285 | 6012 ft | 197 kts | 91° |
| 2026-04-22 19:31 | 36.30809 | 26.28993 | 6012 ft | 197 kts | 91° |
| 2026-04-22 19:32 | 36.30791 | 26.30687 | 6009 ft | 198 kts | 91° |
| 2026-04-22 19:32 | 36.30772 | 26.32332 | 6007 ft | 198 kts | 91° |
| 2026-04-22 19:32 | 36.30753 | 26.34052 | 6011 ft | 198 kts | 91° |
| 2026-04-22 19:32 | 36.30736 | 26.35671 | 6015 ft | 197 kts | 91° |
| 2026-04-22 19:33 | 36.30717 | 26.37359 | 6013 ft | 198 kts | 91° |
| 2026-04-22 19:33 | 36.30698 | 26.39063 | 6010 ft | 198 kts | 91° |
| 2026-04-22 19:33 | 36.30678 | 26.40784 | 6013 ft | 197 kts | 91° |
| 2026-04-22 19:33 | 36.30660 | 26.42468 | 6020 ft | 197 kts | 91° |
| 2026-04-22 19:34 | 36.30644 | 26.44173 | 6024 ft | 197 kts | 91° |
| 2026-04-22 19:34 | 36.30627 | 26.45875 | 6028 ft | 196 kts | 91° |
| 2026-04-22 19:34 | 36.30611 | 26.47553 | 6029 ft | 196 kts | 91° |
| 2026-04-22 19:34 | 36.30597 | 26.49260 | 6023 ft | 196 kts | 91° |
| 2026-04-22 19:35 | 36.30585 | 26.50954 | 6020 ft | 196 kts | 91° |
| 2026-04-22 19:35 | 36.30571 | 26.52657 | 6027 ft | 196 kts | 91° |
| 2026-04-22 19:35 | 36.30553 | 26.54350 | 6035 ft | 195 kts | 91° |
| 2026-04-22 19:35 | 36.30537 | 26.56023 | 6035 ft | 196 kts | 91° |
| 2026-04-22 19:36 | 36.30519 | 26.57709 | 6032 ft | 196 kts | 91° |
| 2026-04-22 19:36 | 36.30503 | 26.59389 | 6030 ft | 197 kts | 91° |
| 2026-04-22 19:36 | 36.30488 | 26.61092 | 6033 ft | 196 kts | 91° |
| 2026-04-22 19:36 | 36.30473 | 26.62795 | 6034 ft | 196 kts | 91° |
| 2026-04-22 19:37 | 36.30465 | 26.64470 | 6036 ft | 196 kts | 91° |
| 2026-04-22 19:37 | 36.30461 | 26.66155 | 6031 ft | 196 kts | 91° |
| 2026-04-22 19:37 | 36.30458 | 26.67841 | 6032 ft | 196 kts | 91° |
| 2026-04-22 19:37 | 36.30455 | 26.69534 | 6035 ft | 195 kts | 91° |
| 2026-04-22 19:38 | 36.30449 | 26.71221 | 6035 ft | 195 kts | 91° |
| 2026-04-22 19:38 | 36.30440 | 26.72885 | 6033 ft | 195 kts | 91° |
| 2026-04-22 19:38 | 36.30427 | 26.74586 | 6032 ft | 195 kts | 91° |
| 2026-04-22 19:38 | 36.30413 | 26.76266 | 6036 ft | 195 kts | 91° |
| 2026-04-22 19:39 | 36.30398 | 26.77942 | 6040 ft | 195 kts | 91° |
| 2026-04-22 19:39 | 36.30383 | 26.79612 | 6039 ft | 195 kts | 91° |
| 2026-04-22 19:39 | 36.30371 | 26.81318 | 6035 ft | 195 kts | 91° |
| 2026-04-22 19:39 | 36.30359 | 26.82982 | 6034 ft | 195 kts | 91° |
| 2026-04-22 19:40 | 36.30345 | 26.84677 | 6031 ft | 196 kts | 91° |
| 2026-04-22 19:40 | 36.30330 | 26.86356 | 6030 ft | 196 kts | 91° |
| 2026-04-22 19:40 | 36.30314 | 26.88040 | 6028 ft | 195 kts | 91° |
| 2026-04-22 19:40 | 36.30297 | 26.89728 | 6028 ft | 195 kts | 91° |
| 2026-04-22 19:41 | 36.30280 | 26.91355 | 6027 ft | 195 kts | 91° |
| 2026-04-22 19:41 | 36.30264 | 26.93039 | 6028 ft | 195 kts | 91° |
| 2026-04-22 19:41 | 36.30249 | 26.94713 | 6028 ft | 195 kts | 91° |
| 2026-04-22 19:41 | 36.30237 | 26.96382 | 6028 ft | 195 kts | 91° |
| 2026-04-22 19:42 | 36.30224 | 26.98070 | 6028 ft | 195 kts | 91° |
| 2026-04-22 19:42 | 36.30209 | 26.99669 | 6030 ft | 194 kts | 91° |
| 2026-04-22 19:42 | 36.30194 | 27.01360 | 6030 ft | 194 kts | 91° |
| 2026-04-22 19:42 | 36.30183 | 27.03033 | 6030 ft | 194 kts | 91° |
| 2026-04-22 19:43 | 36.30158 | 27.06358 | 6030 ft | 194 kts | 91° |
| 2026-04-22 19:43 | 36.30145 | 27.08047 | 6031 ft | 194 kts | 91° |
| 2026-04-22 19:43 | 36.30132 | 27.09707 | 6032 ft | 194 kts | 91° |
| 2026-04-22 19:44 | 36.30122 | 27.11401 | 6031 ft | 195 kts | 91° |
| 2026-04-22 19:44 | 36.30116 | 27.13056 | 6031 ft | 195 kts | 91° |
| 2026-04-22 19:44 | 36.30114 | 27.14743 | 6030 ft | 195 kts | 91° |
| 2026-04-22 19:44 | 36.30108 | 27.16426 | 6032 ft | 194 kts | 91° |
| 2026-04-22 19:45 | 36.30099 | 27.18093 | 6032 ft | 195 kts | 91° |
| 2026-04-22 19:45 | 36.30087 | 27.19763 | 6031 ft | 195 kts | 91° |
| 2026-04-22 19:45 | 36.30072 | 27.21432 | 6030 ft | 195 kts | 91° |
| 2026-04-22 19:45 | 36.30058 | 27.23121 | 6030 ft | 195 kts | 91° |
| 2026-04-22 19:46 | 36.30045 | 27.24800 | 6032 ft | 194 kts | 91° |
| 2026-04-22 19:46 | 36.30029 | 27.26470 | 6035 ft | 194 kts | 91° |
| 2026-04-22 19:46 | 36.30012 | 27.28137 | 6036 ft | 194 kts | 91° |
| 2026-04-22 19:46 | 36.29995 | 27.29810 | 6035 ft | 194 kts | 91° |
| 2026-04-22 19:47 | 36.30032 | 27.31480 | 6027 ft | 194 kts | 81° |
| 2026-04-22 19:47 | 36.30386 | 27.33082 | 6034 ft | 194 kts | 75° |
| 2026-04-22 19:47 | 36.30764 | 27.34688 | 6036 ft | 194 kts | 73° |
| 2026-04-22 19:47 | 36.31147 | 27.36298 | 6036 ft | 195 kts | 73° |
| 2026-04-22 19:48 | 36.31534 | 27.37896 | 6035 ft | 195 kts | 73° |
| 2026-04-22 19:48 | 36.31923 | 27.39504 | 6035 ft | 195 kts | 73° |
| 2026-04-22 19:48 | 36.32308 | 27.41108 | 6037 ft | 195 kts | 73° |
| 2026-04-22 19:48 | 36.32697 | 27.42728 | 6037 ft | 195 kts | 73° |
| 2026-04-22 19:49 | 36.33086 | 27.44350 | 6038 ft | 195 kts | 73° |
| 2026-04-22 19:49 | 36.33469 | 27.45949 | 6040 ft | 195 kts | 73° |
| 2026-04-22 19:49 | 36.33857 | 27.47566 | 6043 ft | 195 kts | 73° |
| 2026-04-22 19:49 | 36.34242 | 27.49169 | 6042 ft | 195 kts | 73° |
| 2026-04-22 19:50 | 36.34628 | 27.50784 | 6041 ft | 195 kts | 73° |
| 2026-04-22 19:50 | 36.35011 | 27.52393 | 6041 ft | 195 kts | 73° |
| 2026-04-22 19:50 | 36.35395 | 27.54012 | 6043 ft | 194 kts | 73° |
| 2026-04-22 19:50 | 36.35756 | 27.55545 | 6044 ft | 194 kts | 73° |
| 2026-04-22 19:51 | 36.36138 | 27.57160 | 6044 ft | 194 kts | 73° |
| 2026-04-22 19:51 | 36.36518 | 27.58755 | 6043 ft | 194 kts | 73° |
| 2026-04-22 19:51 | 36.36905 | 27.60369 | 6041 ft | 195 kts | 73° |
| 2026-04-22 19:51 | 36.37299 | 27.62006 | 6042 ft | 195 kts | 73° |
| 2026-04-22 19:52 | 36.37682 | 27.63604 | 6043 ft | 196 kts | 73° |
| 2026-04-22 19:52 | 36.38072 | 27.65241 | 6045 ft | 196 kts | 73° |
| 2026-04-22 19:52 | 36.38451 | 27.66837 | 6045 ft | 196 kts | 73° |
| 2026-04-22 19:52 | 36.38839 | 27.68466 | 6042 ft | 196 kts | 73° |
| 2026-04-22 19:53 | 36.39226 | 27.70096 | 6040 ft | 195 kts | 73° |
| 2026-04-22 19:53 | 36.39594 | 27.71642 | 6040 ft | 195 kts | 73° |
| 2026-04-22 19:53 | 36.39981 | 27.73262 | 6037 ft | 195 kts | 73° |
| 2026-04-22 19:53 | 36.40367 | 27.74883 | 6039 ft | 194 kts | 73° |
| 2026-04-22 19:54 | 36.40741 | 27.76477 | 6059 ft | 194 kts | 74° |
| 2026-04-22 19:54 | 36.41122 | 27.78091 | 6049 ft | 196 kts | 73° |
| 2026-04-22 19:54 | 36.41503 | 27.79704 | 6035 ft | 195 kts | 71° |
| 2026-04-22 19:54 | 36.41909 | 27.81314 | 6034 ft | 194 kts | 72° |
| 2026-04-22 19:55 | 36.42276 | 27.82909 | 6019 ft | 192 kts | 73° |
| 2026-04-22 19:55 | 36.42637 | 27.84515 | 6030 ft | 192 kts | 72° |
| 2026-04-22 19:55 | 36.43010 | 27.86088 | 6044 ft | 193 kts | 73° |
| 2026-04-22 19:55 | 36.43385 | 27.87687 | 6038 ft | 193 kts | 73° |
| 2026-04-22 19:56 | 36.43758 | 27.89292 | 6050 ft | 194 kts | 73° |
| 2026-04-22 19:56 | 36.44133 | 27.90902 | 6031 ft | 195 kts | 73° |
| 2026-04-22 19:56 | 36.44512 | 27.92524 | 6019 ft | 195 kts | 73° |
| 2026-04-22 19:56 | 36.44883 | 27.94119 | 6031 ft | 194 kts | 73° |
| 2026-04-22 19:57 | 36.45263 | 27.95736 | 6034 ft | 194 kts | 73° |
| 2026-04-22 19:57 | 36.45639 | 27.97329 | 6034 ft | 194 kts | 73° |
| 2026-04-22 19:57 | 36.46024 | 27.98952 | 6034 ft | 195 kts | 73° |
| 2026-04-22 19:57 | 36.46408 | 28.00570 | 6034 ft | 195 kts | 73° |
| 2026-04-22 19:58 | 36.46787 | 28.02169 | 6034 ft | 195 kts | 73° |
| 2026-04-22 19:58 | 36.47171 | 28.03789 | 6034 ft | 195 kts | 73° |
| 2026-04-22 19:58 | 36.47558 | 28.05414 | 6032 ft | 195 kts | 73° |
| 2026-04-22 19:58 | 36.47943 | 28.07019 | 6034 ft | 195 kts | 73° |
| 2026-04-22 19:59 | 36.48330 | 28.08637 | 6034 ft | 195 kts | 73° |
| 2026-04-22 20:00 | 36.50645 | 28.18325 | 6039 ft | 195 kts | 73° |
| 2026-04-22 20:00 | 36.51032 | 28.19945 | 6033 ft | 195 kts | 73° |
| 2026-04-22 20:01 | 36.51415 | 28.21562 | 6053 ft | 195 kts | 73° |
| 2026-04-22 20:01 | 36.51798 | 28.23193 | 6034 ft | 196 kts | 73° |
| 2026-04-22 20:01 | 36.52175 | 28.24803 | 6030 ft | 195 kts | 73° |
| 2026-04-22 20:01 | 36.52556 | 28.26416 | 6035 ft | 195 kts | 73° |
| 2026-04-22 20:02 | 36.52937 | 28.28030 | 6030 ft | 194 kts | 73° |
| 2026-04-22 20:02 | 36.53319 | 28.29637 | 6032 ft | 194 kts | 73° |
| 2026-04-22 20:02 | 36.53701 | 28.31258 | 6041 ft | 193 kts | 73° |
| 2026-04-22 20:02 | 36.54079 | 28.32859 | 6035 ft | 194 kts | 73° |
| 2026-04-22 20:03 | 36.54460 | 28.34457 | 6032 ft | 193 kts | 73° |
| 2026-04-22 20:03 | 36.54842 | 28.36053 | 6034 ft | 193 kts | 73° |
| 2026-04-22 20:03 | 36.55229 | 28.37666 | 6038 ft | 193 kts | 73° |
| 2026-04-22 20:03 | 36.55608 | 28.39252 | 6040 ft | 194 kts | 73° |
| 2026-04-22 20:04 | 36.55996 | 28.40869 | 6047 ft | 193 kts | 73° |
| 2026-04-22 20:04 | 36.56379 | 28.42468 | 6044 ft | 193 kts | 73° |
| 2026-04-22 20:04 | 36.56763 | 28.44071 | 6041 ft | 194 kts | 73° |
| 2026-04-22 20:04 | 36.57149 | 28.45672 | 6049 ft | 193 kts | 73° |
| 2026-04-22 20:05 | 36.57528 | 28.47266 | 6059 ft | 193 kts | 73° |
| 2026-04-22 20:05 | 36.57910 | 28.48883 | 6061 ft | 193 kts | 73° |
| 2026-04-22 20:05 | 36.58289 | 28.50505 | 5978 ft | 198 kts | 73° |
| 2026-04-22 20:05 | 36.58686 | 28.52208 | 5889 ft | 201 kts | 73° |
| 2026-04-22 20:06 | 36.59086 | 28.53922 | 5779 ft | 202 kts | 73° |
| 2026-04-22 20:06 | 36.59488 | 28.55642 | 5676 ft | 203 kts | 71° |
| 2026-04-22 20:06 | 36.59884 | 28.57311 | 5568 ft | 192 kts | 75° |
| 2026-04-22 20:06 | 36.60243 | 28.58809 | 5461 ft | 170 kts | 72° |
| 2026-04-22 20:07 | 36.60371 | 28.60213 | 5331 ft | 155 kts | 105° |
| 2026-04-22 20:07 | 36.59714 | 28.61264 | 5201 ft | 139 kts | 153° |
| 2026-04-22 20:07 | 36.58747 | 28.61376 | 5086 ft | 128 kts | 200° |
| 2026-04-22 20:07 | 36.58087 | 28.60612 | 4969 ft | 121 kts | 248° |
| 2026-04-22 20:08 | 36.58113 | 28.59557 | 4849 ft | 120 kts | 294° |
| 2026-04-22 20:08 | 36.58763 | 28.58870 | 4733 ft | 121 kts | 340° |
| 2026-04-22 20:08 | 36.59611 | 28.58858 | 4628 ft | 121 kts | 356° |
| 2026-04-22 20:08 | 36.60419 | 28.58662 | 4525 ft | 118 kts | 337° |
| 2026-04-22 20:09 | 36.61151 | 28.58190 | 4425 ft | 116 kts | 328° |
| 2026-04-22 20:09 | 36.61900 | 28.57651 | 4319 ft | 117 kts | 327° |
| 2026-04-22 20:09 | 36.62640 | 28.57104 | 4212 ft | 117 kts | 327° |
| 2026-04-22 20:09 | 36.63378 | 28.56556 | 4107 ft | 117 kts | 327° |
| 2026-04-22 20:10 | 36.64127 | 28.56007 | 3999 ft | 116 kts | 326° |
| 2026-04-22 20:10 | 36.64952 | 28.55842 | 3873 ft | 119 kts | 12° |
| 2026-04-22 20:10 | 36.65630 | 28.56428 | 3755 ft | 120 kts | 55° |
| 2026-04-22 20:10 | 36.65815 | 28.57423 | 3640 ft | 119 kts | 98° |
| 2026-04-22 20:11 | 36.65392 | 28.58313 | 3525 ft | 115 kts | 145° |
| 2026-04-22 20:11 | 36.64785 | 28.59060 | 3419 ft | 114 kts | 132° |
| 2026-04-22 20:11 | 36.64229 | 28.59874 | 3314 ft | 114 kts | 131° |
| 2026-04-22 20:11 | 36.63700 | 28.60686 | 3201 ft | 114 kts | 123° |
| 2026-04-22 20:12 | 36.63445 | 28.61677 | 3096 ft | 114 kts | 99° |
| 2026-04-22 20:12 | 36.63380 | 28.62668 | 2994 ft | 111 kts | 94° |
| 2026-04-22 20:12 | 36.63341 | 28.63610 | 2886 ft | 102 kts | 94° |
| 2026-04-22 20:12 | 36.63314 | 28.64470 | 2801 ft | 96 kts | 92° |
| 2026-04-22 20:13 | 36.63397 | 28.65437 | 2630 ft | 97 kts | 77° |
| 2026-04-22 20:13 | 36.63613 | 28.66363 | 2464 ft | 100 kts | 75° |
| 2026-04-22 20:13 | 36.63821 | 28.67340 | 2359 ft | 101 kts | 78° |
| 2026-04-22 20:13 | 36.63999 | 28.68256 | 2319 ft | 95 kts | 70° |
| 2026-04-22 20:14 | 36.64198 | 28.69235 | 2207 ft | 104 kts | 78° |
| 2026-04-22 20:14 | 36.64377 | 28.70213 | 2125 ft | 114 kts | 76° |
| 2026-04-22 20:14 | 36.64576 | 28.71291 | 2118 ft | 112 kts | 78° |
| 2026-04-22 20:14 | 36.64766 | 28.72382 | 2089 ft | 113 kts | 78° |
| 2026-04-22 20:15 | 36.64953 | 28.73451 | 2021 ft | 117 kts | 78° |
| 2026-04-22 20:15 | 36.65180 | 28.74525 | 1884 ft | 123 kts | 74° |
| 2026-04-22 20:15 | 36.65496 | 28.75530 | 1811 ft | 107 kts | 67° |
| 2026-04-22 20:15 | 36.65829 | 28.76303 | 1631 ft | 100 kts | 57° |
| 2026-04-22 20:16 | 36.66280 | 28.76956 | 1395 ft | 103 kts | 44° |
| 2026-04-22 20:16 | 36.66864 | 28.77529 | 1048 ft | 107 kts | 34° |
| 2026-04-22 20:16 | 36.67519 | 28.77922 | 779 ft | 104 kts | 19° |
| 2026-04-22 20:16 | 36.68215 | 28.78196 | 493 ft | 105 kts | 16° |
| 2026-04-22 20:17 | 36.68953 | 28.78430 | 259 ft | 99 kts | 14° |
| 2026-04-22 20:17 | 36.69644 | 28.78665 | 68 ft | 93 kts | 16° |
| 2026-04-22 20:17 | 36.70222 | 28.78869 | 16 ft | 69 kts | 10° |
| 2026-04-22 20:17 | 36.70435 | 28.79075 | 13 ft | 11 kts | 160° |
| 2026-04-22 20:18 | 36.70396 | 28.79047 | 14 ft | 23 kts | 253° |
| 2026-04-22 20:18 | 36.70416 | 28.78921 | 16 ft | 11 kts | 280° |
| 2026-04-22 20:18 | 36.70381 | 28.78788 | 16 ft | 19 kts | 238° |
| 2026-04-22 20:18 | 36.70444 | 28.78741 | 16 ft | 23 kts | 15° |
| 2026-04-22 20:19 | 36.70706 | 28.78831 | 16 ft | 45 kts | 15° |
| 2026-04-22 20:19 | 36.71012 | 28.78939 | 16 ft | 35 kts | 15° |
| 2026-04-22 20:19 | 36.71228 | 28.79008 | 19 ft | 27 kts | 16° |
| 2026-04-22 20:19 | 36.71335 | 28.78962 | 19 ft | 11 kts | 295° |
| 2026-04-22 20:20 | 36.71363 | 28.78875 | 20 ft | 12 kts | 302° |
| 2026-04-22 20:20 | 36.71393 | 28.78801 | 20 ft | 12 kts | 283° |
| 2026-04-22 20:20 | 36.71444 | 28.78721 | 21 ft | 5 kts | 18° |
| 2026-04-22 20:20 | 36.71453 | 28.78728 | 21 ft | 0 kts | 112° |